This is the latest recevied weather packets stored in our database for station/object EW2905. If no packets are shown the sender has not sent any weather packets the latest 10 day(s).
| Time | Temp. | Humidity | Pressure | Rain* | Wind** | Luminosity | Snow |
|---|---|---|---|---|---|---|---|
| 1777141475 | 10.56° C | 57% | 1014.8 hPa | 0 mm | - | - | - |
| 1777139675 | 13.33° C | 52% | 1014.8 hPa | 0 mm | - | - | - |
| 1777139495 | 13.89° C | 48% | 1014.8 hPa | 0 mm | - | - | - |
| 1777139316 | 13.89° C | 47% | 1014.8 hPa | 0 mm | - | - | - |
| 1777138776 | 15° C | 43% | 1014.8 hPa | 0 mm | - | - | - |
| 1777138415 | 15.56° C | 42% | 1014.8 hPa | 0 mm | - | - | - |
| 1777138055 | 19.44° C | 28% | 1014.8 hPa | 0 mm | - | - | - |
| 1777136976 | 19.44° C | 28% | 1014.8 hPa | 0 mm | - | - | - |
| 1777136076 | 19.44° C | 28% | 1014.8 hPa | 0 mm | - | - | - |
| 1777135536 | 20° C | 26% | 1014.6 hPa | 0 mm | - | - | - |
| 1777134996 | 22.22° C | 24% | 1014.6 hPa | 0 mm | - | - | - |
| 1777134816 | 22.22° C | 24% | 1014.6 hPa | 0 mm | - | - | - |
| 1777134276 | 22.22° C | 24% | 1014.6 hPa | 0 mm | - | - | - |
| 1777133916 | 22.22° C | 23% | 1014.6 hPa | 0 mm | - | - | - |
| 1777133376 | 22.78° C | 23% | 1014.6 hPa | 0 mm | - | - | - |
| 1777133196 | 22.22° C | 23% | 1014.6 hPa | 0 mm | - | - | - |
| 1777133016 | 21.67° C | 23% | 1014.6 hPa | 0 mm | - | - | - |
| 1777132836 | 21.67° C | 24% | 1014.6 hPa | 0 mm | - | - | - |
| 1777132656 | 21.67° C | 23% | 1014.6 hPa | 0 mm | - | - | - |
| 1777132476 | 21.67° C | 24% | 1014.6 hPa | 0 mm | - | - | - |
| 1777132296 | 21.67° C | 24% | 1014.6 hPa | 0 mm | - | - | - |
| 1777132116 | 22.22° C | 23% | 1014.6 hPa | 0 mm | - | - | - |
| 1777131936 | 22.22° C | 22% | 1014.6 hPa | 0 mm | - | - | - |
| 1777131756 | 22.78° C | 20% | 1014.6 hPa | 0 mm | - | - | - |
| 1777131576 | 22.78° C | 20% | 1014.6 hPa | 0 mm | - | - | - |
* Rain latest hour (hover to see other rain measurements)
** Current wind speed in m/s (hover to see current wind gust speed)